Bedford Aerodrome


Codes: EGBF/
Name: Bedford Aerodrome
City: Bedford
Country: United Kingdom
Elevation: 270 ft.
Website:

Photos at Bedford Aerodrome


   Photos courtesy of SpottingLog. You can add your own sightings and photos by signing up for a free trial today.



No photos found.

Weather at Bedford Aerodrome


Time (UTC)DescriptionTempratureWindCloud coverageVisibilityPressureHumidity
21-Feb-2024 03:00Overcast Clouds9°C16 mph, SW100%10000m1018hPa90%
21-Feb-2024 06:00Light Rain9°C18 mph, S100%10000m1014hPa91%
21-Feb-2024 09:00Light Rain8°C25 mph, S100%10000m1006hPa90%
21-Feb-2024 12:00Light Rain9°C27 mph, SW100%10000m1002hPa90%
21-Feb-2024 15:00Light Rain11°C20 mph, SW100%10000m998hPa95%
21-Feb-2024 18:00Overcast Clouds11°C16 mph, W100%10000m999hPa86%
21-Feb-2024 21:00Broken Clouds7°C11 mph, SW77%10000m1000hPa88%
22-Feb-2024 00:00Overcast Clouds8°C11 mph, SW87%10000m998hPa94%
22-Feb-2024 03:00Overcast Clouds8°C13 mph, S95%10000m994hPa96%
22-Feb-2024 06:00Overcast Clouds9°C18 mph, S97%10000m989hPa92%
22-Feb-2024 09:00Light Rain10°C18 mph, S99%10000m983hPa90%
22-Feb-2024 12:00Moderate Rain7°C16 mph, NW100%5403m978hPa93%
22-Feb-2024 15:00Moderate Rain3°C22 mph, NW100%10000m980hPa91%
22-Feb-2024 18:00Overcast Clouds4°C16 mph, W91%10000m985hPa81%
22-Feb-2024 21:00Broken Clouds3°C18 mph, SW67%10000m987hPa82%
23-Feb-2024 00:00Scattered Clouds2°C18 mph, SW41%10000m988hPa89%
23-Feb-2024 03:00Broken Clouds3°C18 mph, SW75%10000m986hPa86%
23-Feb-2024 06:00Broken Clouds3°C16 mph, W80%10000m986hPa89%
23-Feb-2024 09:00Broken Clouds4°C13 mph, SW57%10000m988hPa86%
23-Feb-2024 12:00Broken Clouds7°C16 mph, SW69%10000m988hPa68%
23-Feb-2024 15:00Light Rain7°C11 mph, SW76%10000m988hPa70%
23-Feb-2024 18:00Light Rain3°C7 mph, SW83%10000m988hPa85%
23-Feb-2024 21:00Light Rain3°C4 mph, SW100%10000m988hPa89%
24-Feb-2024 00:00Overcast Clouds1°C7 mph, SW86%10000m988hPa92%
24-Feb-2024 03:00Overcast Clouds0°C7 mph, SW93%10000m989hPa92%
24-Feb-2024 06:00Broken Clouds-0°C4 mph, SW79%10000m990hPa91%
24-Feb-2024 09:00Clear Sky3°C4 mph, S5%10000m992hPa80%
24-Feb-2024 12:00Few Clouds6°C4 mph, SW13%10000m993hPa66%
24-Feb-2024 15:00Few Clouds7°C2 mph, W19%10000m994hPa61%
24-Feb-2024 18:00Few Clouds3°C4 mph, NW13%10000m996hPa78%
24-Feb-2024 21:00Clear Sky2°C4 mph, W8%10000m998hPa85%
25-Feb-2024 00:00Clear Sky1°C4 mph, W8%10000m999hPa90%
25-Feb-2024 03:00Clear Sky0°C7 mph, SW10%10000m999hPa92%
25-Feb-2024 06:00Clear Sky-0°C7 mph, SW9%10000m999hPa92%
25-Feb-2024 09:00Broken Clouds3°C4 mph, SE58%10000m999hPa79%
25-Feb-2024 12:00Broken Clouds6°C9 mph, SE79%10000m997hPa73%
25-Feb-2024 15:00Light Rain7°C11 mph, SE100%10000m995hPa78%
25-Feb-2024 18:00Light Rain5°C13 mph, E100%10000m994hPa90%
25-Feb-2024 21:00Light Rain5°C16 mph, E100%10000m992hPa89%
26-Feb-2024 00:00Moderate Rain4°C22 mph, E100%169m990hPa97%